Time;durP1;ratioP1;P1;durP2;ratioP2;P2;SDS_P1;SDS_P2;PMS_P1;PMS_P2;Temp;Humidity;BMP_temperature;BMP_pressure;BME280_temperature;BME280_humidity;BME280_pressure;Samples;Min_cycle;Max_cycle;Signal;HPM_P1;HPM_P2
2023/07/12 00:00:52;;;;;;;5.43;2.67;;;19.60;44.80;;;;;;5012024;28;20471;-73
2023/07/12 00:03:18;;;;;;;4.63;2.00;;;19.70;43.70;;;;;;4993645;28;20514;-73
2023/07/12 00:05:45;;;;;;;3.23;2.07;;;19.70;41.60;;;;;;4993590;28;20259;-73
2023/07/12 00:08:27;;;;;;;5.60;2.23;;;19.70;41.70;;;;;;4993564;28;21018;-73
2023/07/12 00:10:56;;;;;;;2.47;1.50;;;19.60;41.50;;;;;;4993032;28;21035;-73
2023/07/12 00:13:23;;;;;;;2.93;1.93;;;19.50;42.80;;;;;;4999335;28;20415;-72
2023/07/12 00:15:50;;;;;;;4.00;2.00;;;19.40;43.80;;;;;;5012648;28;20900;-73
2023/07/12 00:18:25;;;;;;;3.07;2.20;;;19.30;45.20;;;;;;5012742;28;20419;-72
2023/07/12 00:20:52;;;;;;;3.50;1.93;;;19.30;46.90;;;;;;5012786;28;20831;-72
2023/07/12 00:23:19;;;;;;;4.00;1.60;;;19.30;46.40;;;;;;5012378;28;20549;-71
2023/07/12 00:25:46;;;;;;;3.77;2.13;;;19.40;45.70;;;;;;5012558;28;20414;-71
2023/07/12 00:28:26;;;;;;;2.63;1.63;;;19.40;44.50;;;;;;5012406;28;20418;-72
2023/07/12 00:30:55;;;;;;;10.77;2.07;;;19.50;42.80;;;;;;5012316;28;20442;-72
2023/07/12 00:33:22;;;;;;;7.10;2.47;;;19.60;43.80;;;;;;5012848;28;20419;-71
2023/07/12 00:35:48;;;;;;;4.13;2.27;;;19.60;44.70;;;;;;5013246;28;20508;-72
2023/07/12 00:38:18;;;;;;;4.53;2.17;;;19.60;44.70;;;;;;5012553;28;20429;-72
2023/07/12 00:40:56;;;;;;;4.70;1.80;;;19.70;44.10;;;;;;5012389;28;20466;-73
2023/07/12 00:43:33;;;;;;;6.20;2.00;;;19.70;44.90;;;;;;5012117;28;20403;-72
2023/07/12 00:46:01;;;;;;;3.67;2.70;;;19.80;44.40;;;;;;5012370;28;20403;-72
2023/07/12 00:48:27;;;;;;;4.37;2.80;;;19.70;43.80;;;;;;5012176;28;20407;-72
2023/07/12 00:50:52;;;;;;;5.00;2.90;;;19.80;44.30;;;;;;5012415;28;20434;-72
2023/07/12 00:53:20;;;;;;;3.20;2.07;;;19.80;42.10;;;;;;5012076;28;20183;-72
2023/07/12 00:56:07;;;;;;;4.10;2.60;;;19.80;41.80;;;;;;5012384;28;20205;-71
2023/07/12 00:58:46;;;;;;;5.00;2.80;;;19.90;39.70;;;;;;5012345;28;20429;-72
2023/07/12 01:01:13;;;;;;;6.63;2.53;;;19.90;39.70;;;;;;5008396;28;20478;-72
2023/07/12 01:03:42;;;;;;;3.40;2.60;;;19.90;39.10;;;;;;4991235;28;20906;-71
2023/07/12 01:06:10;;;;;;;4.00;2.70;;;19.90;39.20;;;;;;4992594;28;20840;-71
2023/07/12 01:08:41;;;;;;;3.17;2.30;;;19.90;39.20;;;;;;4991361;28;20412;-72
2023/07/12 01:11:08;;;;;;;4.50;2.97;;;19.90;38.30;;;;;;4992382;28;20475;-72
2023/07/12 01:13:35;;;;;;;3.53;2.43;;;19.90;39.40;;;;;;4992070;28;20944;-72
2023/07/12 01:16:02;;;;;;;6.53;2.80;;;19.90;37.90;;;;;;4991351;28;20418;-72
2023/07/12 01:18:29;;;;;;;4.37;3.07;;;19.90;36.00;;;;;;4992479;28;20442;-72
2023/07/12 01:21:10;;;;;;;5.07;3.23;;;20.00;37.70;;;;;;4992245;28;20491;-72
2023/07/12 01:23:38;;;;;;;5.13;2.50;;;19.90;39.10;;;;;;4992370;28;20451;-72
2023/07/12 01:26:13;;;;;;;5.40;2.77;;;19.90;39.80;;;;;;4992295;28;20415;-73
2023/07/12 01:28:40;;;;;;;5.47;3.40;;;19.90;39.70;;;;;;4990990;28;20784;-71
2023/07/12 01:31:06;;;;;;;5.43;2.83;;;19.80;39.70;;;;;;4992619;28;20953;-71
2023/07/12 01:33:31;;;;;;;5.40;3.03;;;19.80;39.70;;;;;;4992289;28;20415;-72
2023/07/12 01:35:57;;;;;;;7.00;3.50;;;19.80;40.00;;;;;;4993091;28;20172;-72
2023/07/12 01:38:22;;;;;;;2.90;2.60;;;19.80;39.70;;;;;;4991009;28;20183;-72
2023/07/12 01:40:48;;;;;;;6.07;3.13;;;19.80;40.20;;;;;;4991982;28;20295;-72
2023/07/12 01:43:14;;;;;;;4.10;3.13;;;19.70;39.10;;;;;;4991891;28;20195;-72
2023/07/12 01:45:39;;;;;;;5.60;3.53;;;19.80;38.30;;;;;;4992124;28;20923;-71
2023/07/12 01:48:05;;;;;;;3.50;2.80;;;19.80;37.90;;;;;;4992513;28;20183;-71
2023/07/12 01:50:31;;;;;;;4.57;2.73;;;19.80;37.70;;;;;;4990872;28;20197;-70
2023/07/12 01:52:56;;;;;;;4.53;3.10;;;19.90;38.00;;;;;;4991827;28;20217;-69
2023/07/12 01:55:22;;;;;;;7.80;3.87;;;19.80;39.00;;;;;;4992152;28;20552;-69
2023/07/12 01:57:47;;;;;;;6.93;3.20;;;19.70;34.50;;;;;;4992060;28;20533;-70
2023/07/12 02:00:14;;;;;;;4.73;2.60;;;19.80;33.10;;;;;;4991827;28;20177;-70
2023/07/12 02:02:39;;;;;;;7.13;3.37;;;19.90;32.60;;;;;;4987254;28;20188;-70
2023/07/12 02:05:06;;;;;;;3.83;2.63;;;20.00;31.90;;;;;;4972497;28;20810;-69
2023/07/12 02:07:32;;;;;;;3.80;2.03;;;20.00;31.40;;;;;;4972540;28;20181;-70
2023/07/12 02:10:10;;;;;;;3.70;2.50;;;20.00;31.20;;;;;;4972449;28;20847;-70
2023/07/12 02:12:36;;;;;;;3.87;2.80;;;20.00;31.20;;;;;;4976886;28;20417;-71
2023/07/12 02:15:02;;;;;;;3.23;2.87;;;20.00;31.20;;;;;;5015335;28;20489;-70
2023/07/12 02:17:27;;;;;;;4.87;3.00;;;20.00;32.30;;;;;;5018541;28;20187;-71
2023/07/12 02:19:53;;;;;;;5.73;3.17;;;20.10;29.50;;;;;;5019012;28;20538;-69
2023/07/12 02:22:18;;;;;;;3.93;2.80;;;20.10;29.50;;;;;;5018526;28;20620;-70
2023/07/12 02:24:44;;;;;;;3.43;2.73;;;20.00;29.50;;;;;;5016291;28;20238;-70
2023/07/12 02:27:09;;;;;;;4.43;2.83;;;20.00;29.50;;;;;;5015386;28;20668;-70
2023/07/12 02:29:35;;;;;;;3.80;2.80;;;20.00;29.50;;;;;;5015258;28;20172;-71
2023/07/12 02:32:01;;;;;;;5.40;2.70;;;20.00;28.40;;;;;;5015867;28;20250;-71
2023/07/12 02:34:26;;;;;;;7.23;4.30;;;20.00;28.70;;;;;;5015068;28;20190;-71
2023/07/12 02:36:52;;;;;;;7.63;2.53;;;20.00;29.20;;;;;;5015102;28;20650;-71
2023/07/12 02:39:17;;;;;;;5.00;3.00;;;20.00;29.40;;;;;;5016956;28;20175;-71
2023/07/12 02:41:43;;;;;;;2.57;2.23;;;20.00;27.90;;;;;;5015470;28;20208;-71
2023/07/12 02:44:08;;;;;;;5.27;2.60;;;20.00;26.50;;;;;;5015264;28;20210;-71
2023/07/12 02:46:34;;;;;;;4.10;3.23;;;20.10;26.10;;;;;;5014559;28;20176;-70
2023/07/12 02:48:59;;;;;;;4.97;2.60;;;20.10;26.60;;;;;;5014598;28;20255;-71
2023/07/12 02:51:25;;;;;;;4.77;3.00;;;20.10;26.30;;;;;;5014475;28;20804;-71
2023/07/12 02:53:51;;;;;;;3.50;2.53;;;20.10;26.60;;;;;;5014900;28;20187;-71
2023/07/12 02:56:16;;;;;;;4.60;2.67;;;20.10;26.40;;;;;;5012960;28;20179;-71
2023/07/12 02:58:42;;;;;;;4.07;2.70;;;20.10;25.90;;;;;;5014219;28;20180;-71
2023/07/12 03:01:07;;;;;;;6.77;2.40;;;20.20;26.80;;;;;;5011577;28;20216;-71
2023/07/12 03:03:33;;;;;;;4.73;3.17;;;20.20;26.60;;;;;;4996281;28;20184;-69
2023/07/12 03:06:07;;;;;;;5.77;2.83;;;20.20;26.40;;;;;;4995607;28;20183;-69
2023/07/12 03:08:36;;;;;;;5.70;2.70;;;20.00;27.60;;;;;;4996703;28;20525;-71
2023/07/12 03:11:07;;;;;;;4.20;2.37;;;20.00;29.10;;;;;;4996944;28;20823;-71
2023/07/12 03:13:33;;;;;;;4.23;2.90;;;20.00;27.70;;;;;;4996552;28;20424;-71
2023/07/12 03:16:01;;;;;;;4.60;2.43;;;20.00;28.30;;;;;;4995720;28;20435;-70
2023/07/12 03:18:27;;;;;;;4.43;2.60;;;20.00;29.50;;;;;;4994993;28;20418;-70
2023/07/12 03:20:57;;;;;;;3.30;2.53;;;20.00;28.80;;;;;;4997094;28;20471;-70
2023/07/12 03:23:22;;;;;;;4.27;3.07;;;19.90;29.90;;;;;;4996256;28;20244;-70
2023/07/12 03:25:48;;;;;;;4.53;2.73;;;19.90;29.40;;;;;;4997517;28;20444;-70
2023/07/12 03:28:13;;;;;;;7.93;4.00;;;20.00;29.50;;;;;;4997506;28;20249;-70
2023/07/12 03:30:39;;;;;;;3.30;2.30;;;20.00;27.80;;;;;;4997162;28;20215;-69
2023/07/12 03:33:04;;;;;;;7.77;3.40;;;20.00;27.10;;;;;;4996697;28;20200;-70
2023/07/12 03:35:30;;;;;;;5.40;3.37;;;20.00;26.80;;;;;;4996034;28;20177;-70
2023/07/12 03:37:56;;;;;;;3.40;2.30;;;20.10;27.30;;;;;;4997639;28;20562;-70
2023/07/12 03:40:21;;;;;;;4.20;2.93;;;20.10;27.10;;;;;;4996579;28;20184;-70
2023/07/12 03:42:47;;;;;;;3.90;3.43;;;20.00;27.20;;;;;;4996363;28;20204;-70
2023/07/12 03:45:13;;;;;;;3.70;2.77;;;20.10;26.80;;;;;;4996755;28;20173;-70
2023/07/12 03:47:38;;;;;;;4.20;2.90;;;20.10;26.60;;;;;;4996407;28;20256;-70
2023/07/12 03:50:05;;;;;;;4.20;3.20;;;20.10;27.40;;;;;;4996803;28;20679;-70
2023/07/12 03:52:30;;;;;;;3.50;2.70;;;20.20;27.60;;;;;;4994688;28;20202;-70
2023/07/12 03:54:56;;;;;;;4.67;3.33;;;20.20;26.40;;;;;;4996203;28;20489;-70
2023/07/12 03:57:23;;;;;;;4.60;3.60;;;20.30;27.10;;;;;;4996422;28;20183;-71
2023/07/12 03:59:48;;;;;;;10.30;2.80;;;20.30;25.70;;;;;;4996158;28;20251;-70
2023/07/12 04:02:14;;;;;;;3.40;2.50;;;20.40;26.30;;;;;;4994176;28;20567;-71
2023/07/12 04:04:39;;;;;;;5.30;3.67;;;20.50;26.70;;;;;;4994663;28;20239;-71
2023/07/12 04:07:05;;;;;;;3.77;2.70;;;20.50;27.30;;;;;;4996170;28;20173;-71
2023/07/12 04:09:31;;;;;;;5.60;3.10;;;20.40;28.00;;;;;;4996610;28;20184;-73
2023/07/12 04:11:56;;;;;;;5.40;2.27;;;20.40;26.70;;;;;;4996872;28;20219;-72
2023/07/12 04:14:22;;;;;;;4.40;3.60;;;20.50;26.20;;;;;;5011024;28;20322;-72
2023/07/12 04:16:48;;;;;;;4.90;3.13;;;20.50;27.00;;;;;;5014712;28;20180;-71
2023/07/12 04:19:14;;;;;;;5.80;3.10;;;20.60;26.40;;;;;;5013334;28;20964;-71
2023/07/12 04:21:39;;;;;;;4.83;3.10;;;20.60;26.00;;;;;;5014378;28;20740;-71
2023/07/12 04:24:05;;;;;;;3.70;2.40;;;20.70;25.20;;;;;;5012861;28;20238;-71
2023/07/12 04:26:31;;;;;;;6.43;3.07;;;20.70;24.80;;;;;;5014366;28;20199;-71
2023/07/12 04:28:56;;;;;;;8.13;3.17;;;20.90;25.50;;;;;;5014785;28;20426;-70
2023/07/12 04:31:22;;;;;;;8.70;2.43;;;20.90;25.80;;;;;;5014090;28;20198;-72
2023/07/12 04:33:49;;;;;;;4.43;2.70;;;20.90;24.60;;;;;;5012785;28;20626;-70
2023/07/12 04:36:16;;;;;;;4.13;3.60;;;21.00;24.80;;;;;;5012701;28;20983;-71
2023/07/12 04:38:42;;;;;;;3.30;2.63;;;21.10;23.60;;;;;;5014401;28;20507;-71
2023/07/12 04:41:08;;;;;;;3.90;2.50;;;21.10;23.90;;;;;;5015824;28;20899;-71
2023/07/12 04:43:34;;;;;;;8.90;2.47;;;21.10;22.80;;;;;;5015207;28;20646;-71
2023/07/12 04:46:00;;;;;;;4.33;2.40;;;21.10;24.20;;;;;;5014495;28;20415;-70
2023/07/12 04:48:26;;;;;;;4.07;2.40;;;21.20;24.20;;;;;;5014559;28;20736;-70
2023/07/12 04:50:53;;;;;;;5.10;3.80;;;21.20;23.40;;;;;;5015910;28;20805;-70
2023/07/12 04:53:20;;;;;;;4.93;3.07;;;21.20;23.90;;;;;;5013923;28;20896;-71
2023/07/12 04:55:47;;;;;;;3.87;2.80;;;21.10;24.00;;;;;;5014096;28;20415;-71
2023/07/12 04:58:13;;;;;;;5.80;3.20;;;21.10;25.60;;;;;;5013939;28;20418;-71
2023/07/12 05:00:39;;;;;;;4.80;3.67;;;21.00;25.90;;;;;;5014070;28;20458;-73
2023/07/12 05:03:05;;;;;;;6.67;3.87;;;21.00;25.00;;;;;;4993948;28;20906;-71
2023/07/12 05:05:30;;;;;;;4.03;2.73;;;20.90;24.90;;;;;;4993357;28;20427;-71
2023/07/12 05:07:56;;;;;;;5.80;3.30;;;21.00;25.50;;;;;;4993433;28;20181;-71
2023/07/12 05:10:22;;;;;;;7.90;3.20;;;21.00;25.90;;;;;;4993674;28;20184;-69
2023/07/12 05:12:48;;;;;;;6.03;3.10;;;20.90;25.80;;;;;;4995632;28;20185;-70
2023/07/12 05:15:14;;;;;;;5.20;2.97;;;20.80;26.80;;;;;;5014842;28;20932;-71
2023/07/12 05:17:40;;;;;;;7.50;4.50;;;20.80;26.40;;;;;;5014641;28;20216;-71
2023/07/12 05:20:07;;;;;;;5.37;4.10;;;20.90;25.80;;;;;;5014871;28;20473;-71
2023/07/12 05:22:33;;;;;;;8.63;3.47;;;21.00;25.90;;;;;;5014142;28;20562;-71
2023/07/12 05:25:00;;;;;;;5.60;3.20;;;21.10;25.50;;;;;;5013913;28;20432;-71
2023/07/12 05:27:26;;;;;;;4.13;3.10;;;21.10;25.60;;;;;;5013782;28;20418;-70
2023/07/12 05:29:52;;;;;;;3.60;2.40;;;21.20;26.10;;;;;;5013815;28;20548;-71
2023/07/12 05:32:17;;;;;;;4.90;3.13;;;21.30;25.00;;;;;;5014415;28;20473;-71
2023/07/12 05:34:43;;;;;;;8.03;3.40;;;21.30;25.60;;;;;;5015702;28;20556;-70
2023/07/12 05:37:10;;;;;;;5.83;3.10;;;21.50;23.60;;;;;;5014832;28;20176;-69
2023/07/12 05:39:36;;;;;;;6.53;4.00;;;21.60;21.30;;;;;;5014654;28;20576;-70
2023/07/12 05:42:02;;;;;;;4.83;3.90;;;21.70;22.70;;;;;;5014159;28;20477;-71
2023/07/12 05:44:28;;;;;;;8.53;3.70;;;21.80;21.80;;;;;;5014569;28;20206;-70
2023/07/12 05:46:54;;;;;;;6.07;3.80;;;21.90;21.40;;;;;;5015108;28;20399;-71
2023/07/12 05:49:19;;;;;;;6.00;3.50;;;22.00;19.60;;;;;;5014592;28;20191;-71
2023/07/12 05:51:45;;;;;;;17.73;7.83;;;22.20;19.90;;;;;;5014520;28;20192;-71
2023/07/12 05:54:12;;;;;;;28.37;10.33;;;22.20;19.70;;;;;;5016645;28;20180;-72
2023/07/12 05:56:38;;;;;;;15.60;5.93;;;22.30;19.20;;;;;;5017685;28;20822;-71
2023/07/12 05:59:04;;;;;;;8.73;3.80;;;22.40;19.50;;;;;;5016723;28;20757;-71
2023/07/12 06:01:30;;;;;;;17.60;5.87;;;22.20;20.20;;;;;;5010071;28;20473;-69
2023/07/12 06:03:55;;;;;;;23.30;7.70;;;22.30;19.10;;;;;;4997237;28;20557;-70
2023/07/12 06:06:21;;;;;;;10.63;4.47;;;22.40;18.60;;;;;;4996615;28;20419;-71
2023/07/12 06:08:46;;;;;;;4.50;3.53;;;22.40;19.60;;;;;;4996803;28;20611;-71
2023/07/12 06:11:13;;;;;;;8.40;4.23;;;22.50;18.70;;;;;;4996675;28;20223;-71
2023/07/12 06:13:38;;;;;;;9.53;4.60;;;22.60;17.90;;;;;;5003497;28;20266;-72
2023/07/12 06:16:05;;;;;;;4.77;4.30;;;22.80;18.50;;;;;;5016895;28;20503;-72
2023/07/12 06:18:30;;;;;;;4.57;4.00;;;22.80;16.20;;;;;;5016877;28;20191;-71
2023/07/12 06:20:59;;;;;;;5.50;3.47;;;22.80;16.20;;;;;;5015850;28;20467;-70
2023/07/12 06:23:25;;;;;;;6.50;4.17;;;23.00;16.20;;;;;;5013979;28;20214;-71
2023/07/12 06:25:51;;;;;;;5.43;4.20;;;23.20;15.80;;;;;;5015999;28;20411;-70
2023/07/12 06:28:17;;;;;;;6.77;3.60;;;23.50;14.50;;;;;;5015629;28;20826;-71
2023/07/12 06:30:43;;;;;;;6.13;3.87;;;23.80;14.30;;;;;;5016132;28;20439;-70
2023/07/12 06:33:12;;;;;;;6.37;4.03;;;24.70;12.00;;;;;;5014315;28;20990;-71
2023/07/12 06:35:39;;;;;;;5.57;4.33;;;24.70;10.80;;;;;;5016123;28;20177;-71
2023/07/12 06:38:04;;;;;;;6.27;4.37;;;25.30;9.50;;;;;;5013811;28;20418;-71
2023/07/12 06:40:30;;;;;;;5.43;4.13;;;25.60;6.80;;;;;;4983248;28;20455;-71
2023/07/12 06:42:56;;;;;;;4.10;3.50;;;25.70;7.40;;;;;;4999650;28;20184;-71
2023/07/12 06:45:21;;;;;;;7.10;4.20;;;25.90;6.90;;;;;;4993608;28;20619;-71
2023/07/12 06:47:47;;;;;;;5.87;4.97;;;26.10;6.60;;;;;;5011525;28;20442;-71
2023/07/12 06:50:13;;;;;;;7.53;4.90;;;26.20;5.30;;;;;;4998482;28;20251;-71
2023/07/12 06:52:38;;;;;;;8.43;5.23;;;26.50;5.30;;;;;;4995477;28;20177;-71
2023/07/12 06:55:04;;;;;;;6.23;5.27;;;27.10;3.60;;;;;;4994597;28;20169;-72
2023/07/12 06:57:30;;;;;;;5.60;5.10;;;28.90;1.00;;;;;;4986193;28;20231;-71
2023/07/12 06:59:56;;;;;;;7.47;6.27;;;30.70;1.00;;;;;;5006770;28;20423;-71
2023/07/12 07:02:21;;;;;;;6.97;6.37;;;31.90;1.00;;;;;;5012494;28;20215;-70
2023/07/12 07:04:47;;;;;;;8.27;6.90;;;32.50;1.00;;;;;;5001352;28;20188;-70
2023/07/12 07:07:13;;;;;;;6.80;6.10;;;33.30;1.00;;;;;;4995682;28;20601;-71
2023/07/12 07:09:38;;;;;;;7.57;7.00;;;33.00;1.00;;;;;;4995013;28;20185;-70
2023/07/12 07:12:08;;;;;;;8.23;7.60;;;33.50;1.00;;;;;;4994858;28;20226;-70
2023/07/12 07:14:33;;;;;;;9.23;8.33;;;33.60;1.00;;;;;;4993616;28;20193;-69
2023/07/12 07:16:59;;;;;;;8.70;8.00;;;32.60;1.00;;;;;;4994371;28;20428;-73
2023/07/12 07:19:24;;;;;;;10.63;7.30;;;31.90;1.00;;;;;;4995547;28;20192;-71
2023/07/12 07:21:50;;;;;;;8.03;6.93;;;31.60;1.00;;;;;;5013502;28;20226;-71
2023/07/12 07:24:17;;;;;;;7.83;7.23;;;31.50;1.00;;;;;;4993332;28;20192;-70
2023/07/12 07:26:43;;;;;;;8.47;7.77;;;31.60;1.00;;;;;;4993402;28;20180;-73
2023/07/12 07:29:09;;;;;;;9.10;8.30;;;31.70;1.00;;;;;;4999936;28;20473;-71
2023/07/12 07:31:34;;;;;;;9.60;7.80;;;31.30;1.00;;;;;;5013853;28;20439;-69
2023/07/12 07:34:00;;;;;;;7.57;6.87;;;31.30;1.00;;;;;;4992646;28;20674;-68
2023/07/12 07:36:25;;;;;;;8.47;7.70;;;31.80;1.00;;;;;;4974597;28;20336;-70
2023/07/12 07:38:51;;;;;;;7.97;7.50;;;33.50;1.00;;;;;;4974543;28;20262;-69
2023/07/12 07:41:16;;;;;;;10.03;9.27;;;35.30;1.00;;;;;;4974236;28;20236;-70
2023/07/12 07:43:44;;;;;;;8.60;8.10;;;36.80;1.00;;;;;;4974421;28;20546;-71
2023/07/12 07:46:10;;;;;;;9.40;8.70;;;35.60;1.00;;;;;;4998805;28;20179;-69
2023/07/12 07:48:36;;;;;;;8.07;7.47;;;34.70;1.00;;;;;;5013516;28;20509;-69
2023/07/12 07:51:02;;;;;;;9.83;9.20;;;34.60;1.00;;;;;;5013330;28;20509;-69
2023/07/12 07:53:27;;;;;;;9.80;9.00;;;35.10;1.00;;;;;;5013042;28;20180;-69
2023/07/12 07:55:53;;;;;;;10.20;8.70;;;34.20;1.00;;;;;;5013212;28;20704;-68
2023/07/12 07:58:20;;;;;;;11.80;9.63;;;34.10;1.00;;;;;;5013306;28;20548;-69
2023/07/12 08:00:46;;;;;;;9.60;8.80;;;34.40;1.00;;;;;;5013029;28;20259;-69
2023/07/12 08:03:12;;;;;;;8.97;8.37;;;34.90;1.00;;;;;;5012915;28;20430;-69
2023/07/12 08:05:38;;;;;;;9.50;8.90;;;34.80;1.00;;;;;;5013177;28;20812;-69
2023/07/12 08:08:04;;;;;;;9.10;8.50;;;33.90;1.00;;;;;;5012898;28;20900;-70
2023/07/12 08:10:32;;;;;;;10.30;9.40;;;35.20;1.00;;;;;;5036505;23;20442;-68
2023/07/12 08:12:58;;;;;;;9.10;8.50;;;36.60;1.00;;;;;;4992393;28;20836;-68
2023/07/12 08:15:24;;;;;;;9.40;8.70;;;35.60;1.00;;;;;;4992536;28;20432;-69
2023/07/12 08:17:50;;;;;;;9.70;8.73;;;34.40;1.00;;;;;;4993372;28;20931;-68
2023/07/12 08:20:16;;;;;;;10.03;9.33;;;33.20;1.00;;;;;;4991838;28;20482;-68
2023/07/12 08:22:42;;;;;;;8.87;8.10;;;33.30;1.00;;;;;;4986149;28;20503;-68
2023/07/12 08:25:09;;;;;;;9.20;8.50;;;34.40;1.00;;;;;;4974339;28;20420;-68
2023/07/12 08:27:34;;;;;;;9.20;8.50;;;35.30;1.00;;;;;;4974291;28;20417;-68
2023/07/12 08:30:00;;;;;;;10.07;9.20;;;37.80;1.00;;;;;;4974524;28;20425;-69
2023/07/12 08:32:30;;;;;;;9.27;8.67;;;38.10;1.00;;;;;;4973974;28;20556;-69
2023/07/12 08:34:57;;;;;;;10.20;9.43;;;37.60;1.00;;;;;;4974209;28;20182;-69
2023/07/12 08:37:24;;;;;;;10.00;9.40;;;38.70;1.00;;;;;;4974042;28;20472;-68
2023/07/12 08:39:50;;;;;;;10.10;9.50;;;39.50;1.00;;;;;;4974251;28;20471;-69
2023/07/12 08:42:21;;;;;;;9.40;8.80;;;38.60;1.00;;;;;;4973926;28;20947;-68
2023/07/12 08:44:47;;;;;;;9.43;8.87;;;38.70;1.00;;;;;;4972702;28;20177;-69
2023/07/12 08:47:30;;;;;;;9.83;9.13;;;39.00;1.00;;;;;;4973600;28;20412;-70
2023/07/12 08:49:56;;;;;;;9.53;9.03;;;39.90;1.00;;;;;;4972255;28;20654;-69
2023/07/12 08:52:29;;;;;;;10.20;9.50;;;40.50;1.00;;;;;;4973335;28;20837;-70
2023/07/12 08:54:57;;;;;;;9.80;9.20;;;40.40;1.00;;;;;;4973254;28;20417;-70
2023/07/12 08:57:25;;;;;;;10.50;9.90;;;40.50;1.00;;;;;;4991574;28;20436;-69
2023/07/12 09:00:12;;;;;;;9.80;9.23;;;40.60;1.00;;;;;;4991667;28;20959;-70
2023/07/12 09:02:38;;;;;;;10.70;9.90;;;38.40;1.00;;;;;;4992177;28;20494;-69
2023/07/12 09:05:19;;;;;;;10.23;9.63;;;38.60;1.00;;;;;;4991383;28;20427;-69
2023/07/12 09:07:56;;;;;;;10.83;10.03;;;36.50;1.00;;;;;;4991388;28;20259;-69
2023/07/12 09:10:41;;;;;;;9.37;8.67;;;33.80;1.00;;;;;;4991330;28;20936;-67
2023/07/12 09:13:11;;;;;;;9.43;8.93;;;33.40;1.00;;;;;;4992489;28;20412;-70
2023/07/12 09:15:51;;;;;;;9.53;8.77;;;32.90;1.00;;;;;;4992274;28;20399;-72
2023/07/12 09:18:37;;;;;;;8.67;8.07;;;31.30;1.00;;;;;;4992185;28;20446;-71
2023/07/12 09:21:21;;;;;;;8.50;8.00;;;30.10;1.00;;;;;;4990781;28;20480;-71
2023/07/12 09:23:47;;;;;;;9.43;8.50;;;29.90;1.00;;;;;;4972636;28;20500;-71
2023/07/12 09:26:18;;;;;;;8.33;7.80;;;29.90;1.00;;;;;;4971356;28;20528;-71
2023/07/12 09:28:47;;;;;;;9.27;8.37;;;29.50;1.00;;;;;;4972959;28;20207;-71
2023/07/12 09:31:14;;;;;;;7.90;7.30;;;29.00;1.00;;;;;;4987542;28;20572;-71
2023/07/12 09:33:42;;;;;;;8.53;7.93;;;28.80;1.00;;;;;;4972390;28;20757;-72
2023/07/12 09:36:08;;;;;;;7.50;7.00;;;29.00;1.00;;;;;;4972537;28;20416;-71
2023/07/12 09:38:36;;;;;;;8.70;7.97;;;28.90;1.00;;;;;;4972716;28;20514;-71
2023/07/12 09:41:09;;;;;;;8.53;7.93;;;29.00;1.00;;;;;;4972604;28;20213;-72
2023/07/12 09:43:37;;;;;;;8.40;7.90;;;29.00;1.00;;;;;;4972623;28;20427;-71
2023/07/12 09:46:29;;;;;;;8.23;7.73;;;29.10;1.00;;;;;;4972270;28;20881;-71
2023/07/12 09:49:10;;;;;;;8.17;7.63;;;29.20;1.00;;;;;;4972661;28;20408;-71
2023/07/12 09:51:55;;;;;;;8.60;7.90;;;29.00;1.00;;;;;;4970988;28;21219;-72
2023/07/12 09:54:47;;;;;;;8.70;8.00;;;28.90;1.00;;;;;;4972329;28;20435;-71
2023/07/12 09:57:21;;;;;;;8.73;8.03;;;29.20;1.00;;;;;;4967321;28;20421;-70
2023/07/12 10:00:04;;;;;;;7.90;7.40;;;28.90;1.00;;;;;;4972410;28;20420;-71
2023/07/12 10:02:33;;;;;;;9.70;8.93;;;28.70;1.00;;;;;;4972094;28;20460;-71
2023/07/12 10:05:11;;;;;;;9.20;8.30;;;28.70;1.00;;;;;;4972964;28;20877;-70
2023/07/12 10:07:54;;;;;;;8.40;7.90;;;28.80;1.00;;;;;;4973750;28;20424;-71
2023/07/12 10:10:38;;;;;;;7.77;7.17;;;28.60;1.00;;;;;;4981119;28;20420;-70
2023/07/12 10:13:40;;;;;;;8.10;7.50;;;28.50;1.00;;;;;;4977946;28;20424;-70
2023/07/12 10:16:13;;;;;;;7.40;7.00;;;28.50;1.00;;;;;;4973200;28;20416;-70
2023/07/12 10:18:39;;;;;;;9.73;6.70;;;28.40;1.00;;;;;;4972949;28;20405;-69
2023/07/12 10:21:09;;;;;;;9.50;7.73;;;28.50;1.00;;;;;;4972290;28;20491;-71
2023/07/12 10:24:03;;;;;;;7.93;7.33;;;28.50;1.00;;;;;;4990413;28;20268;-70
2023/07/12 10:26:31;;;;;;;7.63;7.03;;;28.60;1.00;;;;;;4991885;28;20478;-68
2023/07/12 10:29:32;;;;;;;8.87;8.13;;;28.50;1.00;;;;;;4990683;28;20478;-70
2023/07/12 10:32:01;;;;;;;7.47;6.97;;;28.70;1.00;;;;;;4977311;28;20443;-70
2023/07/12 10:34:39;;;;;;;8.30;7.60;;;28.80;1.00;;;;;;4991741;28;20543;-71
2023/07/12 10:37:19;;;;;;;7.43;6.73;;;28.90;1.00;;;;;;4989360;28;20451;-72
2023/07/12 10:39:47;;;;;;;7.40;6.80;;;28.80;1.00;;;;;;4991452;28;20997;-72
2023/07/12 10:42:32;;;;;;;8.07;7.47;;;28.80;1.00;;;;;;4990921;28;20558;-70
2023/07/12 10:45:01;;;;;;;6.20;5.80;;;28.70;1.00;;;;;;4991641;28;20424;-69
2023/07/12 10:47:33;;;;;;;8.40;7.70;;;28.70;1.00;;;;;;4983750;28;20452;-72
2023/07/12 10:50:02;;;;;;;7.63;7.13;;;28.60;1.00;;;;;;4975142;28;20886;-69
2023/07/12 10:52:31;;;;;;;7.97;7.27;;;28.70;1.00;;;;;;4975026;28;20516;-71
2023/07/12 10:55:06;;;;;;;7.23;6.57;;;28.90;1.00;;;;;;4975364;28;20421;-70
2023/07/12 10:57:46;;;;;;;8.50;7.70;;;28.50;1.00;;;;;;4974060;28;20420;-71
2023/07/12 11:00:25;;;;;;;8.13;7.40;;;28.80;1.00;;;;;;4975440;28;20412;-70
2023/07/12 11:03:01;;;;;;;7.30;6.80;;;28.80;1.00;;;;;;4975045;28;20441;-71
2023/07/12 11:05:42;;;;;;;8.70;8.10;;;28.90;1.00;;;;;;4975551;28;20405;-71
2023/07/12 11:08:30;;;;;;;7.90;7.30;;;28.90;1.00;;;;;;4975457;28;20929;-72
2023/07/12 11:10:58;;;;;;;7.30;6.80;;;28.90;1.00;;;;;;4975227;28;20883;-71
2023/07/12 11:13:31;;;;;;;8.23;7.50;;;28.90;1.00;;;;;;4974068;28;20459;-71
2023/07/12 11:16:12;;;;;;;7.73;7.17;;;28.80;1.00;;;;;;4975756;28;20480;-71
2023/07/12 11:18:38;;;;;;;7.30;6.80;;;29.00;1.00;;;;;;4975492;28;20425;-70
2023/07/12 11:21:06;;;;;;;7.60;7.00;;;29.20;1.00;;;;;;4973673;28;20551;-71
2023/07/12 11:23:52;;;;;;;7.43;6.93;;;29.40;1.00;;;;;;4993864;28;20185;-70
2023/07/12 11:26:28;;;;;;;8.20;7.40;;;29.50;1.00;;;;;;4994886;28;20469;-71
2023/07/12 11:29:25;;;;;;;8.40;7.80;;;29.50;1.00;;;;;;4994424;28;20423;-70
2023/07/12 11:32:21;;;;;;;8.83;8.00;;;29.60;1.00;;;;;;4994085;28;20831;-70
2023/07/12 11:34:48;;;;;;;8.37;7.77;;;29.40;1.00;;;;;;4993272;28;20514;-70
2023/07/12 11:37:24;;;;;;;9.63;8.63;;;29.00;1.00;;;;;;4993099;28;20416;-69
2023/07/12 11:39:51;;;;;;;7.87;7.33;;;29.10;1.00;;;;;;4994607;28;20766;-70
2023/07/12 11:42:28;;;;;;;7.93;7.43;;;29.30;1.00;;;;;;4993895;28;20514;-70
2023/07/12 11:45:09;;;;;;;8.10;7.40;;;29.30;1.00;;;;;;4993996;28;20419;-71
2023/07/12 11:47:39;;;;;;;8.93;8.13;;;29.20;1.00;;;;;;4994116;28;20420;-70
2023/07/12 11:50:06;;;;;;;8.47;7.87;;;29.10;1.00;;;;;;4992885;28;20454;-70
2023/07/12 11:52:34;;;;;;;8.60;7.90;;;29.20;1.00;;;;;;4993581;28;20807;-71
2023/07/12 11:55:04;;;;;;;8.00;7.50;;;29.50;1.00;;;;;;4993932;28;20428;-71
2023/07/12 11:57:38;;;;;;;10.93;8.30;;;29.60;1.00;;;;;;4992451;28;20428;-69
2023/07/12 12:00:23;;;;;;;7.87;7.30;;;30.10;1.00;;;;;;4994197;28;20467;-68
2023/07/12 12:02:54;;;;;;;8.23;7.70;;;30.40;1.00;;;;;;4994461;28;20514;-69
2023/07/12 12:05:25;;;;;;;8.73;8.10;;;30.40;1.00;;;;;;5003915;28;20427;-69
2023/07/12 12:07:53;;;;;;;8.03;7.43;;;30.50;1.00;;;;;;5013058;28;20446;-69
2023/07/12 12:10:32;;;;;;;9.03;8.33;;;30.60;1.00;;;;;;5011849;28;20427;-68
2023/07/12 12:12:58;;;;;;;8.03;7.40;;;30.70;1.00;;;;;;5012714;28;20423;-68
2023/07/12 12:15:26;;;;;;;8.23;7.63;;;30.60;1.00;;;;;;5002966;28;20423;-68
2023/07/12 12:17:53;;;;;;;8.43;7.77;;;30.60;1.00;;;;;;4993444;28;20423;-69
2023/07/12 12:20:24;;;;;;;9.90;8.57;;;30.70;1.00;;;;;;4993164;28;20776;-69
2023/07/12 12:22:59;;;;;;;9.27;8.60;;;30.40;1.00;;;;;;4992849;28;20436;-69
2023/07/12 12:25:29;;;;;;;10.30;9.50;;;30.10;1.00;;;;;;4993165;28;20439;-68
2023/07/12 12:27:55;;;;;;;10.17;9.40;;;30.50;1.00;;;;;;4993149;28;20426;-69
2023/07/12 12:30:29;;;;;;;8.97;8.37;;;30.40;1.00;;;;;;4993149;28;21040;-69
2023/07/12 12:33:04;;;;;;;9.13;8.23;;;30.40;1.00;;;;;;4992665;28;20475;-69
2023/07/12 12:35:31;;;;;;;8.87;7.93;;;30.10;1.00;;;;;;4991925;28;20493;-68
2023/07/12 12:38:03;;;;;;;10.10;9.30;;;30.20;1.00;;;;;;4992983;28;20947;-68
2023/07/12 12:40:28;;;;;;;8.70;7.87;;;30.20;1.00;;;;;;4992983;28;20416;-69
2023/07/12 12:43:05;;;;;;;9.10;8.50;;;30.20;1.00;;;;;;4992853;28;20431;-68
2023/07/12 12:45:37;;;;;;;9.87;8.87;;;30.40;1.00;;;;;;4991615;28;20169;-70
2023/07/12 12:48:09;;;;;;;8.93;8.23;;;30.50;1.00;;;;;;4992820;28;20482;-70
2023/07/12 12:50:35;;;;;;;9.23;8.53;;;30.20;1.00;;;;;;4992935;28;20782;-70
2023/07/12 12:53:04;;;;;;;8.37;7.77;;;30.20;1.00;;;;;;4990875;28;20427;-70
2023/07/12 12:55:30;;;;;;;9.20;8.30;;;30.30;1.00;;;;;;4992790;28;20415;-70
2023/07/12 12:57:56;;;;;;;8.80;8.03;;;30.00;1.00;;;;;;4992587;28;20415;-69
2023/07/12 13:00:23;;;;;;;9.57;8.67;;;29.90;1.00;;;;;;4992404;28;20538;-69